Time;durP1;ratioP1;P1;durP2;ratioP2;P2;SDS_P1;SDS_P2;PMS_P1;PMS_P2;Temp;Humidity;BMP_temperature;BMP_pressure;BME280_temperature;BME280_humidity;BME280_pressure;Samples;Min_cycle;Max_cycle;Signal;HPM_P1;HPM_P2
2023/08/02 00:03:50;;;;;;;7.63;2.50;;;;;16.00;95567.00;;;;8295066;28;20309;-70
2023/08/02 00:08:13;;;;;;;3.08;1.98;;;;;16.10;95569.00;;;;8315219;28;20201;-71
2023/08/02 00:12:22;;;;;;;3.92;2.38;;;;;16.10;95571.00;;;;8310596;28;20544;-71
2023/08/02 00:16:27;;;;;;;2.97;2.28;;;;;16.20;95570.00;;;;8316345;28;20201;-72
2023/08/02 00:20:44;;;;;;;3.83;2.35;;;;;16.10;95565.00;;;;8317131;28;20281;-71
2023/08/02 00:24:47;;;;;;;2.70;2.50;;;;;16.10;95574.00;;;;8307189;28;20241;-72
2023/08/02 00:28:54;;;;;;;2.45;2.25;;;;;16.10;95568.00;;;;8307843;28;20500;-71
2023/08/02 00:33:01;;;;;;;3.05;2.53;;;;;16.00;95573.00;;;;8309444;28;20860;-72
2023/08/02 00:37:09;;;;;;;5.32;2.55;;;;;16.00;95573.00;;;;8314371;28;20664;-71
2023/08/02 00:42:02;;;;;;;3.38;2.47;;;;;15.90;95576.00;;;;8301254;28;20638;-72
2023/08/02 00:46:14;;;;;;;4.45;2.20;;;;;15.80;95567.00;;;;8316460;28;20306;-70
2023/08/02 00:50:24;;;;;;;3.95;2.50;;;;;15.70;95565.00;;;;8313594;28;20201;-71
2023/08/02 00:54:28;;;;;;;4.55;2.58;;;;;15.70;95564.00;;;;8291031;28;20320;-71
2023/08/02 00:58:31;;;;;;;6.47;3.15;;;;;15.60;95556.00;;;;8315460;28;20285;-71
2023/08/02 01:02:42;;;;;;;3.85;2.50;;;;;15.50;95568.00;;;;8311071;28;20336;-72
2023/08/02 01:06:54;;;;;;;6.78;2.70;;;;;15.50;95557.00;;;;8309988;28;20216;-72
2023/08/02 01:11:07;;;;;;;6.15;2.50;;;;;15.30;95553.00;;;;8312717;28;20198;-72
2023/08/02 01:15:12;;;;;;;7.60;2.40;;;;;15.20;95563.00;;;;8311023;28;20225;-71
2023/08/02 01:19:21;;;;;;;3.03;2.28;;;;;15.00;95562.00;;;;8312929;28;20931;-71
2023/08/02 01:23:26;;;;;;;5.95;2.47;;;;;15.00;95560.00;;;;8306664;28;20198;-73
2023/08/02 01:27:40;;;;;;;8.80;3.10;;;;;14.90;95551.00;;;;8294696;28;20261;-73
2023/08/02 01:31:43;;;;;;;7.70;2.50;;;;;14.90;95551.00;;;;8303578;28;20303;-70
2023/08/02 01:35:46;;;;;;;8.05;2.72;;;;;14.80;95542.00;;;;8301560;28;20283;-71
2023/08/02 01:39:52;;;;;;;6.88;2.72;;;;;14.70;95532.00;;;;8308905;28;20288;-71
2023/08/02 01:44:01;;;;;;;7.15;2.50;;;;;14.60;95519.00;;;;8303411;28;20206;-71
2023/08/02 01:48:06;;;;;;;5.35;2.53;;;;;14.60;95521.00;;;;8305804;28;20225;-72
2023/08/02 01:52:15;;;;;;;5.50;2.85;;;;;14.50;95512.00;;;;8310379;28;20288;-71
2023/08/02 01:56:21;;;;;;;5.47;2.60;;;;;14.50;95515.00;;;;8307749;28;20233;-71
2023/08/02 02:00:24;;;;;;;9.73;3.00;;;;;14.40;95509.00;;;;8308889;28;20225;-72
2023/08/02 02:04:27;;;;;;;4.10;2.63;;;;;14.30;95508.00;;;;8312969;28;20605;-70
2023/08/02 02:08:32;;;;;;;3.28;2.47;;;;;14.30;95502.00;;;;8308924;28;20299;-71
2023/08/02 02:12:36;;;;;;;4.53;2.95;;;;;14.20;95503.00;;;;8307954;28;20288;-71
2023/08/02 02:16:46;;;;;;;13.25;3.20;;;;;14.10;95503.00;;;;8306659;28;20233;-71
2023/08/02 02:20:49;;;;;;;4.97;3.08;;;;;14.00;95505.00;;;;8309901;28;20779;-72
2023/08/02 02:24:53;;;;;;;6.72;3.20;;;;;13.90;95505.00;;;;8312060;28;20236;-71
2023/08/02 02:28:58;;;;;;;7.43;3.00;;;;;13.80;95501.00;;;;8306486;28;20238;-71
2023/08/02 02:33:03;;;;;;;7.30;3.00;;;;;13.70;95504.00;;;;8309813;28;20710;-71
2023/08/02 02:37:07;;;;;;;6.65;3.38;;;;;13.70;95484.00;;;;8312560;28;20208;-71
2023/08/02 02:41:12;;;;;;;5.80;3.30;;;;;13.60;95485.00;;;;8312715;28;20201;-71
2023/08/02 02:45:17;;;;;;;8.35;3.45;;;;;13.50;95481.00;;;;8311900;28;20197;-71
2023/08/02 02:49:20;;;;;;;8.55;3.30;;;;;13.40;95467.00;;;;8312078;28;20201;-70
2023/08/02 02:53:23;;;;;;;4.50;3.63;;;;;13.40;95464.00;;;;8304503;28;20236;-71
2023/08/02 02:57:34;;;;;;;4.50;3.17;;;;;13.30;95462.00;;;;8313303;28;20715;-70
2023/08/02 03:06:07;;;;;;;5.93;3.30;;;;;13.10;95460.00;;;;8389629;28;20287;-70
2023/08/02 03:10:11;;;;;;;6.47;3.78;;;;;13.00;95458.00;;;;8384219;28;20226;-70
2023/08/02 03:14:19;;;;;;;8.65;3.38;;;;;13.00;95463.00;;;;8405902;28;20231;-71
2023/08/02 03:18:22;;;;;;;6.55;3.58;;;;;12.90;95463.00;;;;8400051;28;20200;-71
2023/08/02 03:22:38;;;;;;;7.90;3.53;;;;;12.90;95448.00;;;;8399391;28;20303;-71
2023/08/02 03:26:42;;;;;;;6.78;3.45;;;;;12.90;95461.00;;;;8399018;28;20223;-69
2023/08/02 03:30:48;;;;;;;9.07;3.45;;;;;12.90;95452.00;;;;8393617;28;20212;-72
2023/08/02 03:34:51;;;;;;;6.30;3.70;;;;;12.90;95444.00;;;;8396446;28;20226;-72
2023/08/02 03:38:58;;;;;;;10.85;3.63;;;;;12.90;95437.00;;;;8400360;28;20199;-72
2023/08/02 03:43:03;;;;;;;10.80;3.80;;;;;12.90;95433.00;;;;8394179;28;20196;-71
2023/08/02 03:47:07;;;;;;;9.98;3.83;;;;;12.90;95442.00;;;;8399839;28;20227;-71
2023/08/02 03:51:13;;;;;;;5.43;3.72;;;;;12.90;95433.00;;;;8401236;28;20200;-71
2023/08/02 03:55:17;;;;;;;4.22;3.55;;;;;13.00;95432.00;;;;8397723;28;20217;-71
2023/08/02 03:59:23;;;;;;;7.10;4.03;;;;;13.00;95426.00;;;;8386648;28;20199;-73
2023/08/02 04:03:33;;;;;;;9.27;3.72;;;;;13.10;95424.00;;;;8385906;28;20235;-73
2023/08/02 04:07:36;;;;;;;9.50;4.07;;;;;13.20;95415.00;;;;8395593;28;20564;-73
2023/08/02 04:11:41;;;;;;;8.27;4.20;;;;;13.40;95411.00;;;;8413626;28;20219;-73
2023/08/02 04:15:44;;;;;;;5.47;3.70;;;;;13.50;95404.00;;;;8398579;28;20643;-73
2023/08/02 04:19:47;;;;;;;6.25;3.90;;;;;13.70;95402.00;;;;8384023;28;20227;-73
2023/08/02 04:23:52;;;;;;;6.00;3.90;;;;;13.90;95393.00;;;;8379946;28;20188;-73
2023/08/02 04:27:58;;;;;;;8.93;3.40;;;;;14.10;95386.00;;;;8388353;28;20256;-74
2023/08/02 04:32:02;;;;;;;6.82;3.75;;;;;14.20;95384.00;;;;8390927;28;20215;-74
2023/08/02 04:36:05;;;;;;;5.80;3.65;;;;;14.40;95384.00;;;;8400737;28;20231;-74
2023/08/02 04:40:11;;;;;;;8.15;3.47;;;;;14.70;95374.00;;;;8394955;28;20198;-74
2023/08/02 04:44:16;;;;;;;4.50;3.53;;;;;14.90;95366.00;;;;8403395;28;20227;-73
2023/08/02 04:48:27;;;;;;;6.93;3.67;;;;;15.20;95353.00;;;;8392694;28;20307;-74
2023/08/02 04:52:32;;;;;;;10.85;3.30;;;;;15.50;95356.00;;;;8383489;28;20203;-74
2023/08/02 04:56:37;;;;;;;8.63;3.67;;;;;15.80;95353.00;;;;8408673;28;20307;-73
2023/08/02 05:00:47;;;;;;;5.30;3.25;;;;;16.00;95359.00;;;;8404050;28;20198;-75
2023/08/02 05:04:52;;;;;;;6.07;3.50;;;;;16.10;95361.00;;;;8395178;28;20232;-75
2023/08/02 05:08:55;;;;;;;7.80;3.38;;;;;16.30;95361.00;;;;8389930;28;20275;-75
2023/08/02 05:12:58;;;;;;;4.03;3.15;;;;;16.50;95354.00;;;;8378627;28;20207;-73
2023/08/02 05:17:07;;;;;;;6.60;2.83;;;;;16.70;95350.00;;;;8394841;28;20676;-74
2023/08/02 05:21:13;;;;;;;5.97;2.88;;;;;17.00;95339.00;;;;8404928;28;20253;-75
2023/08/02 05:25:17;;;;;;;4.22;3.00;;;;;17.10;95345.00;;;;8398773;28;20199;-75
2023/08/02 05:29:24;;;;;;;3.10;2.67;;;;;17.20;95349.00;;;;8399589;28;20207;-74
2023/08/02 05:33:29;;;;;;;3.70;2.72;;;;;17.30;95345.00;;;;8407971;28;20638;-76
2023/08/02 05:37:35;;;;;;;2.90;2.50;;;;;17.50;95349.00;;;;8407572;28;20223;-73
2023/08/02 05:41:38;;;;;;;4.75;2.78;;;;;17.70;95345.00;;;;8404531;28;20306;-75
2023/08/02 05:45:44;;;;;;;4.97;2.97;;;;;17.90;95345.00;;;;8387865;28;20224;-75
2023/08/02 05:49:52;;;;;;;6.03;2.75;;;;;18.10;95338.00;;;;8393206;28;20195;-74
2023/08/02 05:53:55;;;;;;;4.45;3.08;;;;;18.30;95333.00;;;;8389599;28;20204;-73
2023/08/02 05:57:58;;;;;;;6.95;2.80;;;;;18.30;95339.00;;;;8395410;28;20237;-74
2023/08/02 06:02:01;;;;;;;2.65;2.40;;;;;18.40;95338.00;;;;8394438;28;20211;-75
2023/08/02 06:06:06;;;;;;;6.03;3.53;;;;;18.50;95329.00;;;;8390245;28;20201;-77
2023/08/02 06:10:10;;;;;;;4.90;2.97;;;;;18.40;95332.00;;;;8387955;28;20314;-74
2023/08/02 06:14:17;;;;;;;12.23;3.15;;;;;18.40;95335.00;;;;8396253;28;20196;-77
2023/08/02 06:18:23;;;;;;;4.10;2.75;;;;;18.40;95341.00;;;;8401284;28;20227;-74
2023/08/02 06:22:29;;;;;;;4.53;3.08;;;;;18.60;95341.00;;;;8378565;28;20635;-75
2023/08/02 06:26:32;;;;;;;5.00;2.80;;;;;18.70;95329.00;;;;8393145;28;20879;-76
2023/08/02 06:30:36;;;;;;;3.70;2.45;;;;;18.60;95315.00;;;;8385554;28;20188;-74
2023/08/02 06:34:43;;;;;;;5.45;3.05;;;;;18.70;95304.00;;;;8381221;28;20199;-75
2023/08/02 06:38:49;;;;;;;3.72;2.75;;;;;18.80;95307.00;;;;8374193;28;20196;-73
2023/08/02 06:42:57;;;;;;;6.57;2.97;;;;;18.80;95305.00;;;;8395547;28;20291;-74
2023/08/02 06:47:00;;;;;;;5.00;2.70;;;;;18.80;95310.00;;;;8396563;28;20200;-75
2023/08/02 06:51:06;;;;;;;6.10;3.20;;;;;18.80;95328.00;;;;8406142;28;20227;-74
2023/08/02 06:55:10;;;;;;;3.63;2.65;;;;;18.70;95328.00;;;;8406693;28;21001;-77
2023/08/02 06:59:14;;;;;;;3.13;2.33;;;;;18.70;95326.00;;;;8403870;28;20595;-73
2023/08/02 07:03:21;;;;;;;2.40;2.20;;;;;18.70;95323.00;;;;8385091;28;20265;-74
2023/08/02 07:07:31;;;;;;;3.00;2.70;;;;;18.80;95315.00;;;;8394193;28;20246;-75
2023/08/02 07:11:38;;;;;;;3.13;2.80;;;;;18.80;95312.00;;;;8391294;28;20236;-75
2023/08/02 07:15:41;;;;;;;2.85;2.58;;;;;18.90;95315.00;;;;8399525;28;20230;-75
2023/08/02 07:19:46;;;;;;;6.00;2.70;;;;;18.80;95318.00;;;;8396243;28;20850;-74
2023/08/02 07:23:49;;;;;;;6.82;2.75;;;;;18.90;95319.00;;;;8389900;28;20208;-75
2023/08/02 07:27:53;;;;;;;3.20;2.85;;;;;18.80;95322.00;;;;8402811;28;20696;-75
2023/08/02 07:31:56;;;;;;;5.30;2.70;;;;;18.80;95307.00;;;;8404530;28;20284;-75
2023/08/02 07:36:08;;;;;;;2.53;2.33;;;;;18.80;95322.00;;;;8405931;28;20777;-74
2023/08/02 07:40:13;;;;;;;6.35;2.85;;;;;18.70;95314.00;;;;8406634;28;20720;-74
2023/08/02 07:44:20;;;;;;;5.50;2.70;;;;;18.60;95310.00;;;;8393423;28;20206;-73
2023/08/02 07:48:26;;;;;;;4.65;2.90;;;;;18.20;95315.00;;;;8403112;28;20733;-73
2023/08/02 07:52:37;;;;;;;4.25;3.13;;;;;17.90;95309.00;;;;8393641;28;20560;-74
2023/08/02 07:56:40;;;;;;;8.13;3.45;;;;;17.70;95305.00;;;;8394839;28;21007;-73
2023/08/02 08:00:54;;;;;;;7.57;4.05;;;;;17.50;95299.00;;;;8394118;28;20231;-72
2023/08/02 08:04:57;;;;;;;5.13;3.50;;;;;17.40;95295.00;;;;8392953;28;20588;-72
2023/08/02 08:09:03;;;;;;;4.13;3.45;;;;;17.40;95304.00;;;;8396897;28;20242;-71
2023/08/02 08:13:09;;;;;;;3.70;2.67;;;;;17.50;95303.00;;;;8396453;28;20291;-71
2023/08/02 08:17:14;;;;;;;6.47;3.28;;;;;17.40;95296.00;;;;8397476;28;20310;-70
2023/08/02 08:21:20;;;;;;;5.88;3.30;;;;;17.50;95290.00;;;;8396290;28;20195;-71
2023/08/02 08:25:23;;;;;;;6.68;3.72;;;;;17.60;95294.00;;;;8396406;28;20208;-71
2023/08/02 08:29:28;;;;;;;7.07;4.18;;;;;17.80;95288.00;;;;8397869;28;20646;-70
2023/08/02 08:33:33;;;;;;;11.30;4.55;;;;;18.10;95288.00;;;;8397141;28;20835;-70
2023/08/02 08:37:36;;;;;;;7.53;4.85;;;;;18.20;95282.00;;;;8404541;28;20318;-71
2023/08/02 08:41:41;;;;;;;5.57;3.97;;;;;18.30;95286.00;;;;8393921;28;20203;-70
2023/08/02 08:45:50;;;;;;;8.18;3.95;;;;;18.20;95280.00;;;;8392992;28;20199;-69
2023/08/02 08:49:59;;;;;;;5.07;3.85;;;;;18.00;95270.00;;;;8395005;28;20204;-72
2023/08/02 08:54:09;;;;;;;6.55;3.97;;;;;18.00;95270.00;;;;8392395;28;20967;-71
2023/08/02 08:58:12;;;;;;;5.03;3.90;;;;;18.00;95272.00;;;;8394671;28;20238;-71
2023/08/02 09:02:16;;;;;;;8.68;4.22;;;;;18.00;95275.00;;;;8382625;28;20223;-74
2023/08/02 09:06:21;;;;;;;6.35;4.25;;;;;17.90;95267.00;;;;8401072;28;20207;-74
2023/08/02 09:10:25;;;;;;;5.85;4.05;;;;;17.80;95261.00;;;;8373895;28;20203;-74
2023/08/02 09:14:28;;;;;;;4.75;3.88;;;;;17.70;95250.00;;;;8397931;28;20191;-74
2023/08/02 09:18:35;;;;;;;6.90;3.78;;;;;17.60;95249.00;;;;8403199;28;20234;-73
2023/08/02 09:22:45;;;;;;;5.57;3.08;;;;;17.60;95248.00;;;;8384656;28;20226;-74
2023/08/02 09:26:56;;;;;;;5.18;3.72;;;;;17.60;95232.00;;;;8385304;28;20617;-73
2023/08/02 09:31:17;;;;;;;6.13;3.63;;;;;17.60;95229.00;;;;8392611;28;20214;-74
2023/08/02 09:35:21;;;;;;;5.63;3.97;;;;;17.60;95221.00;;;;8397954;28;20206;-74
2023/08/02 09:39:26;;;;;;;4.68;3.50;;;;;17.70;95218.00;;;;8402851;28;20223;-74
2023/08/02 09:43:32;;;;;;;5.80;3.90;;;;;17.70;95222.00;;;;8397123;28;20208;-72
2023/08/02 09:47:36;;;;;;;5.43;3.50;;;;;17.80;95212.00;;;;8389888;28;20198;-71
2023/08/02 09:51:43;;;;;;;5.40;3.58;;;;;17.90;95212.00;;;;8398456;28;20210;-72
2023/08/02 09:55:48;;;;;;;3.33;3.03;;;;;17.90;95205.00;;;;8395025;28;20200;-72
2023/08/02 09:59:56;;;;;;;3.63;2.97;;;;;17.70;95204.00;;;;8400075;28;20218;-70
2023/08/02 10:04:06;;;;;;;4.05;3.28;;;;;17.70;95206.00;;;;8396453;28;20223;-70
2023/08/02 10:08:11;;;;;;;3.78;3.40;;;;;17.70;95203.00;;;;8406651;28;20314;-71
2023/08/02 10:12:22;;;;;;;5.00;3.42;;;;;17.70;95187.00;;;;8391111;28;20198;-70
2023/08/02 10:16:25;;;;;;;3.17;2.88;;;;;17.80;95193.00;;;;8397938;28;20215;-70
2023/08/02 10:20:34;;;;;;;3.60;3.20;;;;;17.80;95183.00;;;;8400938;28;20206;-71
2023/08/02 10:24:37;;;;;;;4.38;3.25;;;;;17.90;95173.00;;;;8387776;28;20306;-72
2023/08/02 10:28:43;;;;;;;4.82;3.20;;;;;17.90;95178.00;;;;8383165;28;20206;-72
2023/08/02 10:33:20;;;;;;;4.00;3.22;;;;;17.80;95172.00;;;;8382546;28;20196;-71
2023/08/02 10:37:53;;;;;;;4.82;3.13;;;;;17.90;95159.00;;;;8396474;28;20295;-77
2023/08/02 10:42:00;;;;;;;4.05;2.78;;;;;17.80;95147.00;;;;8407059;28;20960;-79
2023/08/02 10:46:22;;;;;;;4.20;3.40;;;;;17.70;95138.00;;;;8396951;28;20195;-77
2023/08/02 10:50:48;;;;;;;4.28;3.13;;;;;17.60;95134.00;;;;8393965;28;20227;-74
2023/08/02 10:55:12;;;;;;;3.35;3.05;;;;;17.50;95116.00;;;;8395312;28;20196;-73
2023/08/02 10:59:18;;;;;;;3.95;2.88;;;;;17.50;95105.00;;;;8388379;28;20869;-77
2023/08/02 11:03:31;;;;;;;4.63;2.67;;;;;17.50;95099.00;;;;8401384;28;20680;-75
2023/08/02 11:07:37;;;;;;;3.30;2.83;;;;;17.50;95097.00;;;;8390149;28;20234;-73
2023/08/02 11:11:45;;;;;;;2.92;2.72;;;;;17.60;95093.00;;;;8395722;28;20199;-76
2023/08/02 11:16:03;;;;;;;2.60;2.40;;;;;17.60;95080.00;;;;8393656;28;20195;-73
2023/08/02 11:20:14;;;;;;;3.13;2.45;;;;;17.50;95086.00;;;;8402980;28;20224;-70
2023/08/02 11:24:19;;;;;;;6.28;2.60;;;;;17.40;95083.00;;;;8389826;28;20200;-68
2023/08/02 11:28:27;;;;;;;3.90;2.78;;;;;17.30;95066.00;;;;8367238;28;20199;-75
2023/08/02 11:32:32;;;;;;;5.88;3.25;;;;;17.40;95066.00;;;;8400193;28;20249;-76
2023/08/02 11:36:37;;;;;;;9.43;3.50;;;;;17.30;95064.00;;;;8388633;28;20200;-73
2023/08/02 11:40:40;;;;;;;3.55;3.15;;;;;17.30;95070.00;;;;8394042;28;20333;-75
2023/08/02 11:44:45;;;;;;;3.50;3.20;;;;;17.30;95060.00;;;;8397497;28;20315;-78
2023/08/02 11:49:07;;;;;;;3.08;2.78;;;;;17.30;95053.00;;;;8397638;28;20191;-80
2023/08/02 11:53:25;;;;;;;2.97;2.55;;;;;17.30;95045.00;;;;8411711;28;20200;-80
2023/08/02 11:57:30;;;;;;;2.90;2.67;;;;;17.30;95030.00;;;;8394971;28;20901;-78
2023/08/02 12:01:35;;;;;;;5.75;3.10;;;;;17.40;95034.00;;;;8399753;28;20203;-71
2023/08/02 12:05:39;;;;;;;4.95;3.45;;;;;17.60;95028.00;;;;8387669;28;20839;-75
2023/08/02 12:09:48;;;;;;;3.85;3.30;;;;;17.70;95028.00;;;;8403397;28;20203;-80
2023/08/02 12:13:55;;;;;;;4.57;3.40;;;;;17.60;95018.00;;;;8399526;28;20704;-77
2023/08/02 12:18:04;;;;;;;3.88;3.20;;;;;17.60;95016.00;;;;8403882;28;20220;-77
2023/08/02 12:22:09;;;;;;;5.72;3.47;;;;;17.70;95003.00;;;;8403929;28;20212;-77
2023/08/02 12:26:28;;;;;;;4.15;3.20;;;;;17.80;95003.00;;;;8384350;28;20209;-74
2023/08/02 12:30:33;;;;;;;4.32;3.20;;;;;17.80;94998.00;;;;8384485;28;20204;-78
2023/08/02 12:34:37;;;;;;;5.35;3.50;;;;;17.80;94991.00;;;;8397715;28;20228;-76
2023/08/02 12:38:40;;;;;;;6.47;4.18;;;;;17.80;94982.00;;;;8388905;28;20768;-77
2023/08/02 12:42:45;;;;;;;6.22;3.83;;;;;17.90;94980.00;;;;8396456;28;20223;-76
2023/08/02 12:47:08;;;;;;;5.57;4.10;;;;;18.20;94964.00;;;;8389346;28;20403;-74
2023/08/02 12:51:11;;;;;;;5.93;3.85;;;;;18.20;94966.00;;;;8396338;28;20287;-78
2023/08/02 12:55:15;;;;;;;6.60;4.22;;;;;18.20;94964.00;;;;8407204;28;20196;-75
2023/08/02 12:59:24;;;;;;;8.07;4.10;;;;;18.20;94953.00;;;;8407953;28;20873;-71
2023/08/02 13:03:28;;;;;;;7.80;4.40;;;;;18.20;94947.00;;;;8390781;28;20228;-81
2023/08/02 13:07:33;;;;;;;6.43;4.03;;;;;18.30;94935.00;;;;8392021;28;20328;-82
2023/08/02 13:11:49;;;;;;;5.57;3.75;;;;;18.30;94937.00;;;;8397600;28;20224;-77
2023/08/02 13:15:56;;;;;;;9.00;4.47;;;;;18.20;94934.00;;;;8395100;28;20211;-68
2023/08/02 13:19:59;;;;;;;7.82;5.10;;;;;18.20;94930.00;;;;8396698;28;20220;-71
2023/08/02 13:24:02;;;;;;;8.05;4.75;;;;;18.20;94925.00;;;;8408884;28;20640;-75
2023/08/02 13:28:06;;;;;;;7.82;4.55;;;;;18.30;94925.00;;;;8405888;28;20211;-73
2023/08/02 13:32:11;;;;;;;6.93;4.40;;;;;18.50;94913.00;;;;8399244;28;20314;-69
2023/08/02 13:36:19;;;;;;;5.97;4.70;;;;;18.60;94912.00;;;;8400562;28;20577;-74
2023/08/02 13:40:24;;;;;;;9.25;4.47;;;;;18.70;94912.00;;;;8392780;28;20327;-73
2023/08/02 13:44:31;;;;;;;8.25;4.90;;;;;18.70;94910.00;;;;8402554;28;20223;-74
2023/08/02 13:48:36;;;;;;;10.02;5.13;;;;;18.90;94897.00;;;;8402006;28;20231;-76
2023/08/02 13:52:39;;;;;;;6.50;4.60;;;;;19.20;94898.00;;;;8391452;28;20311;-78
2023/08/02 13:56:44;;;;;;;7.53;5.40;;;;;19.50;94876.00;;;;8390417;28;20199;-72
2023/08/02 14:00:47;;;;;;;9.82;5.18;;;;;19.90;94870.00;;;;8403173;28;20223;-73
2023/08/02 14:04:52;;;;;;;5.70;4.57;;;;;20.10;94863.00;;;;8390331;28;20242;-71
2023/08/02 14:08:55;;;;;;;5.88;4.18;;;;;20.80;94858.00;;;;8390050;28;20261;-71
2023/08/02 14:12:58;;;;;;;4.65;4.20;;;;;20.80;94862.00;;;;8384946;28;20203;-70
2023/08/02 14:17:05;;;;;;;5.88;3.97;;;;;21.30;94846.00;;;;8390093;28;20632;-71
2023/08/02 14:21:09;;;;;;;8.38;4.97;;;;;21.60;94850.00;;;;8384368;28;20228;-70
2023/08/02 14:25:14;;;;;;;7.85;4.65;;;;;21.40;94841.00;;;;8393207;28;20282;-72
2023/08/02 14:29:17;;;;;;;5.47;4.75;;;;;21.70;94839.00;;;;8403740;28;20211;-71
2023/08/02 14:33:20;;;;;;;6.95;4.22;;;;;21.70;94835.00;;;;8404223;28;20636;-70
2023/08/02 14:37:29;;;;;;;8.70;4.47;;;;;21.70;94836.00;;;;8405649;28;20203;-70
2023/08/02 14:41:35;;;;;;;7.38;4.82;;;;;22.10;94831.00;;;;8404229;28;20206;-70
2023/08/02 14:45:38;;;;;;;8.25;4.22;;;;;22.20;94813.00;;;;8394558;28;20202;-70
2023/08/02 14:49:41;;;;;;;4.65;4.15;;;;;22.20;94807.00;;;;8399817;28;20716;-76
2023/08/02 14:53:50;;;;;;;5.88;4.30;;;;;22.20;94821.00;;;;8408839;28;20206;-76
2023/08/02 14:58:10;;;;;;;5.10;4.32;;;;;22.10;94811.00;;;;8405077;28;20286;-75
2023/08/02 15:02:17;;;;;;;7.88;4.40;;;;;22.10;94802.00;;;;8402811;28;20227;-78
2023/08/02 15:06:24;;;;;;;7.45;4.90;;;;;22.00;94799.00;;;;8394877;28;20207;-73
2023/08/02 15:10:29;;;;;;;4.85;4.15;;;;;22.00;94807.00;;;;8396316;28;20301;-81
2023/08/02 15:14:33;;;;;;;7.20;4.28;;;;;21.70;94800.00;;;;8406411;28;20291;-79
2023/08/02 15:18:40;;;;;;;6.90;4.55;;;;;21.50;94779.00;;;;8399206;28;20219;-73
2023/08/02 15:22:45;;;;;;;8.45;4.60;;;;;21.30;94766.00;;;;8407129;28;20206;-69
2023/08/02 15:26:49;;;;;;;9.52;3.92;;;;;21.10;94765.00;;;;8395611;28;20697;-73
2023/08/02 15:30:55;;;;;;;7.63;4.60;;;;;20.90;94768.00;;;;8406576;28;20745;-73
2023/08/02 15:35:01;;;;;;;9.18;5.22;;;;;20.70;94771.00;;;;8389085;28;20202;-73
2023/08/02 15:39:07;;;;;;;9.57;4.63;;;;;20.60;94771.00;;;;8406256;28;20267;-76
2023/08/02 15:43:14;;;;;;;11.05;5.28;;;;;20.50;94761.00;;;;8403958;28;20203;-85
2023/08/02 15:47:17;;;;;;;8.07;5.00;;;;;20.50;94759.00;;;;8397768;28;20462;-80
2023/08/02 15:51:20;;;;;;;11.10;5.60;;;;;20.70;94752.00;;;;8402542;28;20200;-82
2023/08/02 15:55:29;;;;;;;6.65;4.85;;;;;20.80;94752.00;;;;8389749;28;20286;-76
2023/08/02 15:59:34;;;;;;;9.32;5.53;;;;;20.70;94750.00;;;;8408908;28;20228;-80
2023/08/02 16:03:39;;;;;;;9.27;6.10;;;;;20.60;94744.00;;;;8401157;28;20244;-72
2023/08/02 16:07:45;;;;;;;7.28;5.00;;;;;20.50;94745.00;;;;8397472;28;20287;-73
2023/08/02 16:11:50;;;;;;;11.43;5.90;;;;;20.40;94742.00;;;;8401789;28;20235;-74
2023/08/02 16:15:56;;;;;;;9.75;5.97;;;;;20.30;94748.00;;;;8390281;28;20296;-78
2023/08/02 16:19:59;;;;;;;12.10;6.18;;;;;20.30;94753.00;;;;8395956;28;20795;-77
2023/08/02 16:24:03;;;;;;;11.10;6.15;;;;;20.20;94752.00;;;;8400392;28;20200;-78
2023/08/02 16:28:08;;;;;;;13.25;6.80;;;;;20.30;94740.00;;;;8402830;28;20283;-77
2023/08/02 16:32:13;;;;;;;10.27;6.78;;;;;20.30;94735.00;;;;8397550;28;20692;-74
2023/08/02 16:36:16;;;;;;;9.88;6.32;;;;;20.40;94731.00;;;;8404978;28;20202;-76
2023/08/02 16:40:19;;;;;;;7.07;5.47;;;;;20.30;94742.00;;;;8394475;28;20229;-72
2023/08/02 16:44:28;;;;;;;9.15;5.93;;;;;20.30;94751.00;;;;8396458;28;20231;-72
2023/08/02 16:48:32;;;;;;;12.32;6.70;;;;;20.30;94736.00;;;;8388411;28;20203;-79
2023/08/02 16:52:38;;;;;;;9.38;6.07;;;;;20.40;94741.00;;;;8401080;28;20200;-74
2023/08/02 16:56:41;;;;;;;10.10;6.13;;;;;20.40;94741.00;;;;8398971;28;20310;-77
2023/08/02 17:00:48;;;;;;;13.02;7.00;;;;;20.40;94736.00;;;;8400773;28;20228;-75
2023/08/02 17:04:52;;;;;;;13.98;7.70;;;;;20.30;94735.00;;;;8391981;28;20794;-77
2023/08/02 17:08:57;;;;;;;11.82;6.95;;;;;20.30;94736.00;;;;8401217;28;20203;-74
2023/08/02 17:13:00;;;;;;;18.73;8.30;;;;;20.20;94733.00;;;;8397434;28;20210;-77
2023/08/02 17:17:04;;;;;;;12.20;7.13;;;;;20.30;94713.00;;;;8386016;28;20200;-78
2023/08/02 17:21:14;;;;;;;14.40;7.90;;;;;20.30;94689.00;;;;8389010;28;20327;-79
2023/08/02 17:25:17;;;;;;;13.77;7.75;;;;;20.20;94681.00;;;;8395629;28;20200;-75
2023/08/02 17:29:27;;;;;;;12.82;6.85;;;;;20.20;94680.00;;;;8401246;28;20227;-75
2023/08/02 17:33:33;;;;;;;11.23;6.35;;;;;20.10;94677.00;;;;8384094;28;20278;-79
2023/08/02 17:37:40;;;;;;;13.90;6.57;;;;;20.00;94651.00;;;;8408311;28;20633;-74
2023/08/02 17:41:45;;;;;;;13.27;6.82;;;;;20.00;94644.00;;;;8386558;28;20261;-74
2023/08/02 17:45:48;;;;;;;8.23;5.78;;;;;19.90;94630.00;;;;8386344;28;20286;-76
2023/08/02 17:49:51;;;;;;;13.23;5.50;;;;;19.90;94638.00;;;;8387794;28;20732;-81
2023/08/02 17:54:01;;;;;;;11.85;5.53;;;;;19.80;94638.00;;;;8389551;28;20196;-77
2023/08/02 17:58:07;;;;;;;8.98;5.60;;;;;19.80;94649.00;;;;8398405;28;21217;-68
2023/08/02 18:02:11;;;;;;;8.10;5.68;;;;;19.70;94671.00;;;;8385124;28;20592;-80
2023/08/02 18:06:14;;;;;;;8.20;5.85;;;;;19.70;94665.00;;;;8389685;28;20650;-75
2023/08/02 18:10:21;;;;;;;10.57;6.07;;;;;19.70;94658.00;;;;8392988;28;20195;-79
2023/08/02 18:14:24;;;;;;;9.32;6.10;;;;;19.70;94656.00;;;;8402737;28;20198;-77
2023/08/02 18:18:28;;;;;;;8.13;5.70;;;;;19.60;94660.00;;;;8385685;28;20294;-74
2023/08/02 18:22:34;;;;;;;15.90;6.88;;;;;19.60;94657.00;;;;8379548;28;20216;-71
2023/08/02 18:26:41;;;;;;;10.73;5.95;;;;;19.60;94656.00;;;;8384104;28;20296;-74
2023/08/02 18:30:58;;;;;;;13.50;6.18;;;;;19.60;94650.00;;;;8399777;28;20297;-76
2023/08/02 18:35:07;;;;;;;11.95;6.60;;;;;19.50;94644.00;;;;8400889;28;20199;-74
2023/08/02 18:39:10;;;;;;;11.45;6.15;;;;;19.50;94639.00;;;;8400449;28;20538;-74
2023/08/02 18:43:22;;;;;;;17.60;6.30;;;;;19.50;94615.00;;;;8397845;28;20412;-76
2023/08/02 18:47:30;;;;;;;12.80;6.63;;;;;19.50;94609.00;;;;8392169;28;20206;-78
2023/08/02 18:51:37;;;;;;;11.90;6.38;;;;;19.40;94600.00;;;;8389648;28;20689;-78
2023/08/02 18:55:40;;;;;;;18.40;6.90;;;;;19.40;94596.00;;;;8375703;28;20202;-72
2023/08/02 18:59:47;;;;;;;14.85;6.55;;;;;19.50;94623.00;;;;8399038;28;20313;-74
2023/08/02 19:03:51;;;;;;;14.27;5.88;;;;;19.50;94636.00;;;;8370716;28;20662;-73
2023/08/02 19:07:58;;;;;;;12.80;6.65;;;;;19.50;94643.00;;;;8397190;28;20223;-72
2023/08/02 19:12:02;;;;;;;11.20;6.43;;;;;19.50;94703.00;;;;8392124;28;20223;-72
2023/08/02 19:16:06;;;;;;;13.48;7.03;;;;;19.50;94791.00;;;;8402096;28;20286;-70
2023/08/02 19:20:12;;;;;;;9.73;6.28;;;;;19.50;94736.00;;;;8389865;28;20694;-73
2023/08/02 19:24:15;;;;;;;12.57;6.57;;;;;19.50;94770.00;;;;8380618;28;20826;-74
2023/08/02 19:28:25;;;;;;;19.77;5.97;;;;;19.60;94718.00;;;;8386011;28;20192;-78
2023/08/02 19:32:34;;;;;;;15.35;6.75;;;;;19.60;94755.00;;;;8377908;28;20223;-79
2023/08/02 19:36:37;;;;;;;10.68;6.20;;;;;19.60;94785.00;;;;8405674;28;20206;-79
2023/08/02 19:40:43;;;;;;;12.43;6.28;;;;;19.60;94802.00;;;;8398812;28;20844;-78
2023/08/02 19:44:48;;;;;;;14.40;5.82;;;;;19.60;94794.00;;;;8392598;28;20230;-75
2023/08/02 19:48:55;;;;;;;14.75;5.50;;;;;19.60;94824.00;;;;8403522;28;20250;-75
2023/08/02 19:53:00;;;;;;;10.13;4.40;;;;;19.70;94859.00;;;;8405264;28;20199;-71
2023/08/02 19:57:04;;;;;;;11.40;3.55;;;;;19.60;94869.00;;;;8394622;28;20237;-72
2023/08/02 20:01:08;;;;;;;7.70;2.85;;;;;19.60;94865.00;;;;8395093;28;20228;-73
2023/08/02 20:05:18;;;;;;;3.55;2.42;;;;;19.60;94850.00;;;;8396880;28;20233;-76
2023/08/02 20:09:21;;;;;;;5.90;2.58;;;;;19.50;94874.00;;;;8395640;28;20192;-76
2023/08/02 20:13:31;;;;;;;4.13;2.33;;;;;19.40;94893.00;;;;8402593;28;20227;-77
2023/08/02 20:17:35;;;;;;;4.00;2.20;;;;;19.30;94855.00;;;;8403534;28;20295;-77
2023/08/02 20:21:47;;;;;;;3.20;2.20;;;;;19.20;94826.00;;;;8399764;28;20226;-84
2023/08/02 20:25:54;;;;;;;3.75;1.90;;;;;19.10;94832.00;;;;8397595;28;20200;-74
2023/08/02 20:29:59;;;;;;;5.55;2.30;;;;;19.00;94834.00;;;;8395156;28;20240;-74
2023/08/02 20:34:10;;;;;;;6.25;1.98;;;;;18.90;94836.00;;;;8406880;28;20231;-73
2023/08/02 20:38:17;;;;;;;6.35;2.30;;;;;18.80;94839.00;;;;8394861;28;20210;-72